Time;durP1;ratioP1;P1;durP2;ratioP2;P2;SDS_P1;SDS_P2;PMS_P1;PMS_P2;Temp;Humidity;BMP_temperature;BMP_pressure;BME280_temperature;BME280_humidity;BME280_pressure;Samples;Min_cycle;Max_cycle;Signal;HPM_P1;HPM_P2
2022/10/21 00:03:05;;;;;;;16.40;14.75;;;;;;;14.43;100.00;99863.59;10434741;28;20048;-70
2022/10/21 00:08:06;;;;;;;15.75;14.27;;;;;;;14.43;100.00;99823.44;10435618;28;20049;-69
2022/10/21 00:13:08;;;;;;;15.43;14.05;;;;;;;14.44;100.00;99800.16;10436871;28;20048;-69
2022/10/21 00:18:09;;;;;;;15.88;14.32;;;;;;;14.42;100.00;99783.41;10429662;28;20554;-69
2022/10/21 00:23:10;;;;;;;16.52;14.90;;;;;;;14.36;100.00;99782.22;10435550;28;20563;-70
2022/10/21 00:28:12;;;;;;;16.85;15.07;;;;;;;14.37;100.00;99794.63;10419214;28;20054;-68
2022/10/21 00:33:13;;;;;;;16.33;14.63;;;;;;;14.28;100.00;99808.97;10450033;28;20048;-69
2022/10/21 00:38:14;;;;;;;15.82;14.23;;;;;;;14.24;100.00;99796.88;10431880;28;20542;-67
2022/10/21 00:43:16;;;;;;;16.30;14.85;;;;;;;14.29;100.00;99805.25;10431668;28;20076;-68
2022/10/21 00:48:33;;;;;;;15.65;14.05;;;;;;;14.34;100.00;99797.59;10433558;28;20049;-70
2022/10/21 00:53:38;;;;;;;16.48;14.70;;;;;;;14.39;100.00;99795.28;10433469;28;20041;-68
2022/10/21 00:58:40;;;;;;;15.35;13.88;;;;;;;14.39;100.00;99795.28;10432809;28;20787;-69
2022/10/21 01:03:41;;;;;;;15.82;14.32;;;;;;;14.50;100.00;99792.34;10420748;28;20052;-70
2022/10/21 01:08:42;;;;;;;15.35;13.85;;;;;;;14.55;100.00;99783.00;10431497;28;20056;-68
2022/10/21 01:13:50;;;;;;;15.50;13.93;;;;;;;14.54;100.00;99786.66;10412063;28;20051;-67
2022/10/21 01:19:16;;;;;;;14.90;12.98;;;;;;;14.57;100.00;99775.63;10422342;28;20756;-69
2022/10/21 01:24:43;;;;;;;14.95;13.45;;;;;;;14.56;100.00;99760.53;10432215;28;20047;-69
2022/10/21 01:30:06;;;;;;;15.93;12.95;;;;;;;14.50;100.00;99754.84;10429936;28;20143;-69
2022/10/21 01:35:22;;;;;;;17.73;14.00;;;;;;;14.48;100.00;99734.56;10412972;28;20543;-68
2022/10/21 01:40:35;;;;;;;14.73;13.10;;;;;;;14.48;100.00;99708.63;10432454;28;20108;-69
2022/10/21 01:45:45;;;;;;;13.87;12.47;;;;;;;14.54;100.00;99700.97;10429053;28;20048;-67
2022/10/21 01:50:52;;;;;;;13.45;12.02;;;;;;;14.53;100.00;99685.88;10437108;28;20048;-68
2022/10/21 01:55:54;;;;;;;13.90;12.40;;;;;;;14.49;100.00;99672.00;10423539;28;20045;-68
2022/10/21 02:00:59;;;;;;;15.25;13.70;;;;;;;14.50;100.00;99676.31;10436115;28;20055;-69
2022/10/21 02:06:00;;;;;;;14.68;12.88;;;;;;;14.53;100.00;99667.97;10428827;28;20704;-69
2022/10/21 02:11:06;;;;;;;17.42;13.23;;;;;;;14.53;100.00;99678.69;10438095;28;20048;-68
2022/10/21 02:16:10;;;;;;;13.65;12.05;;;;;;;14.56;100.00;99681.06;10438446;28;20057;-70
2022/10/21 02:21:18;;;;;;;13.65;12.35;;;;;;;14.45;100.00;99689.38;10423693;28;20052;-70
2022/10/21 02:26:22;;;;;;;14.38;12.93;;;;;;;14.48;100.00;99671.13;10444626;28;20056;-69
2022/10/21 02:32:14;;;;;;;13.33;12.03;;;;;;;14.46;100.00;99678.50;10438287;28;20063;-69
2022/10/21 02:37:28;;;;;;;14.75;13.35;;;;;;;14.50;100.00;99698.59;10401503;28;20037;-70
2022/10/21 02:42:32;;;;;;;;;;;;;;;14.47;100.00;99685.53;10417355;28;20133;-67
2022/10/21 02:47:35;;;;;;;16.00;13.80;;;;;;;14.58;100.00;99673.69;10404387;28;19936;-69
2022/10/21 02:52:37;;;;;;;15.20;13.53;;;;;;;14.59;100.00;99675.38;10415629;28;20097;-69
2022/10/21 02:57:38;;;;;;;16.45;13.43;;;;;;;14.57;100.00;99663.97;10408763;28;20059;-68
2022/10/21 03:02:41;;;;;;;13.68;12.05;;;;;;;14.54;100.00;99653.56;10410362;28;20052;-70
2022/10/21 03:07:42;;;;;;;12.60;11.40;;;;;;;14.52;100.00;99655.59;10407611;28;20662;-68
2022/10/21 03:12:43;;;;;;;12.30;11.02;;;;;;;14.54;100.00;99671.50;10404607;28;20045;-69
2022/10/21 03:17:45;;;;;;;11.95;10.75;;;;;;;14.62;100.00;99672.41;10398229;28;20053;-69
2022/10/21 03:22:47;;;;;;;12.82;11.23;;;;;;;14.66;100.00;99670.22;10395592;28;20056;-69
2022/10/21 03:27:49;;;;;;;12.63;11.10;;;;;;;14.66;100.00;99640.75;10394797;28;20064;-69
2022/10/21 03:32:50;;;;;;;12.05;10.85;;;;;;;14.70;100.00;99636.75;10400329;28;20049;-70
2022/10/21 03:37:52;;;;;;;11.93;10.25;;;;;;;14.77;100.00;99631.56;10401473;28;20056;-71
2022/10/21 03:42:53;;;;;;;10.18;9.27;;;;;;;14.79;100.00;99625.03;10400776;28;20110;-69
2022/10/21 03:47:54;;;;;;;11.63;10.45;;;;;;;14.77;100.00;99623.50;10403899;28;20048;-70
2022/10/21 03:52:56;;;;;;;12.50;10.52;;;;;;;14.75;100.00;99618.31;10396377;28;20045;-69
2022/10/21 03:57:57;;;;;;;11.63;9.98;;;;;;;14.84;100.00;99611.97;10398385;28;20045;-69
2022/10/21 04:02:58;;;;;;;11.05;10.00;;;;;;;14.84;100.00;99611.97;10401018;28;20044;-70
2022/10/21 04:08:00;;;;;;;10.98;9.95;;;;;;;14.88;100.00;99625.03;10403800;28;20045;-69
2022/10/21 04:13:01;;;;;;;11.70;10.50;;;;;;;14.87;100.00;99628.72;10401756;28;20045;-70
2022/10/21 04:18:02;;;;;;;12.77;10.52;;;;;;;14.89;100.00;99607.94;10381014;28;20868;-70
2022/10/21 04:23:03;;;;;;;14.10;11.10;;;;;;;14.91;100.00;99600.59;10372892;28;20079;-68
2022/10/21 04:28:05;;;;;;;17.42;12.55;;;;;;;14.77;100.00;99594.91;10371215;28;20056;-69
2022/10/21 04:33:06;;;;;;;17.73;13.40;;;;;;;14.76;100.00;99608.47;10376758;28;20065;-70
2022/10/21 04:38:07;;;;;;;15.27;11.65;;;;;;;14.72;100.00;99602.59;10376606;28;20049;-71
2022/10/21 04:43:09;;;;;;;19.60;13.15;;;;;;;14.72;100.00;99596.41;10381775;28;20056;-70
2022/10/21 04:48:12;;;;;;;16.33;14.05;;;;;;;14.66;100.00;99587.19;10384359;28;20049;-70
2022/10/21 04:53:14;;;;;;;23.97;13.83;;;;;;;14.68;100.00;99593.19;10380947;28;20055;-72
2022/10/21 04:58:15;;;;;;;15.75;13.75;;;;;;;14.70;100.00;99585.00;10391483;28;20060;-72
2022/10/21 05:03:22;;;;;;;14.43;12.68;;;;;;;14.69;100.00;99576.13;10377861;28;20056;-72
2022/10/21 05:08:23;;;;;;;15.20;13.18;;;;;;;14.70;100.00;99579.63;10376794;28;20049;-70
2022/10/21 05:13:25;;;;;;;20.33;13.65;;;;;;;14.65;100.00;99583.69;10418434;28;20499;-71
2022/10/21 05:18:27;;;;;;;16.83;13.65;;;;;;;14.64;100.00;99590.03;10416774;28;20048;-71
2022/10/21 05:23:29;;;;;;;16.13;12.85;;;;;;;14.61;100.00;99574.28;10413395;28;20049;-68
2022/10/21 05:28:30;;;;;;;14.57;13.00;;;;;;;14.69;100.00;99570.78;10411387;28;20051;-70
2022/10/21 05:33:32;;;;;;;14.68;13.15;;;;;;;14.80;100.00;99557.06;10415037;28;20682;-71
2022/10/21 05:38:34;;;;;;;18.90;14.32;;;;;;;14.73;100.00;99550.69;10417464;28;20049;-70
2022/10/21 05:43:36;;;;;;;19.27;15.20;;;;;;;14.69;100.00;99565.41;10399682;28;20523;-69
2022/10/21 05:48:38;;;;;;;17.17;12.85;;;;;;;14.60;100.00;99550.31;10418408;28;20060;-72
2022/10/21 05:53:39;;;;;;;13.15;11.80;;;;;;;14.60;100.00;99561.03;10420511;28;20143;-70
2022/10/21 05:58:41;;;;;;;14.32;12.80;;;;;;;14.60;100.00;99553.00;10423055;28;20056;-71
2022/10/21 06:03:42;;;;;;;14.75;13.25;;;;;;;14.60;100.00;99547.63;10429763;28;20048;-72
2022/10/21 06:08:44;;;;;;;14.00;11.75;;;;;;;14.66;100.00;99547.00;10429633;28;20614;-74
2022/10/21 06:13:46;;;;;;;13.63;11.85;;;;;;;14.69;100.00;99541.31;10428749;28;20098;-69
2022/10/21 06:18:47;;;;;;;13.32;11.93;;;;;;;14.67;100.00;99554.03;10438152;28;20048;-69
2022/10/21 06:23:51;;;;;;;13.70;12.13;;;;;;;14.66;100.00;99555.03;10400461;28;20052;-70
2022/10/21 06:28:53;;;;;;;12.20;11.00;;;;;;;14.69;100.00;99569.94;10396411;28;20423;-70
2022/10/21 06:33:54;;;;;;;11.77;10.55;;;;;;;14.72;100.00;99577.66;10416014;28;20584;-71
2022/10/21 06:38:55;;;;;;;15.32;11.45;;;;;;;14.61;100.00;99578.81;10422057;28;20048;-69
2022/10/21 06:43:56;;;;;;;12.50;10.63;;;;;;;14.59;100.00;99565.56;10421949;28;20452;-70
2022/10/21 06:48:58;;;;;;;13.07;11.52;;;;;;;14.58;100.00;99552.34;10417698;28;20055;-71
2022/10/21 06:53:59;;;;;;;14.68;11.60;;;;;;;14.55;100.00;99568.75;10401285;28;20652;-71
2022/10/21 06:59:00;;;;;;;12.60;11.05;;;;;;;14.59;100.00;99560.19;10419966;28;20059;-71
2022/10/21 07:04:04;;;;;;;16.65;11.00;;;;;;;14.61;100.00;99573.47;10424374;28;20554;-70
2022/10/21 07:09:07;;;;;;;11.52;10.32;;;;;;;14.65;100.00;99582.81;10421272;28;20045;-71
2022/10/21 07:14:10;;;;;;;12.90;11.57;;;;;;;14.61;100.00;99574.28;10421229;28;20423;-70
2022/10/21 07:19:12;;;;;;;14.40;10.67;;;;;;;14.66;100.00;99579.16;10404006;28;20061;-70
2022/10/21 07:24:13;;;;;;;13.70;10.63;;;;;;;14.65;100.00;99585.50;10421763;28;20045;-70
2022/10/21 07:29:20;;;;;;;10.82;9.80;;;;;;;14.66;100.00;99593.38;10410487;28;20155;-70
2022/10/21 07:34:21;;;;;;;11.40;10.15;;;;;;;14.71;100.00;99608.94;10408035;28;20502;-71
2022/10/21 07:39:25;;;;;;;11.32;10.02;;;;;;;14.64;100.00;99615.97;10401639;28;20621;-69
2022/10/21 07:44:26;;;;;;;12.20;11.00;;;;;;;14.57;100.00;99614.94;10413174;28;20096;-70
2022/10/21 07:49:27;;;;;;;12.27;10.25;;;;;;;14.59;100.00;99618.28;10423141;28;20068;-71
2022/10/21 07:54:29;;;;;;;16.02;10.57;;;;;;;14.50;100.00;99612.91;10424464;28;20527;-70
2022/10/21 07:59:30;;;;;;;16.38;10.27;;;;;;;14.48;100.00;99612.22;10404876;28;20056;-70
2022/10/21 08:04:32;;;;;;;14.13;10.18;;;;;;;14.56;100.00;99618.59;10419718;28;20188;-70
2022/10/21 08:09:33;;;;;;;17.05;10.55;;;;;;;14.64;100.00;99605.28;10420915;28;20059;-70
2022/10/21 08:14:35;;;;;;;12.52;10.25;;;;;;;14.73;100.00;99614.97;10418782;28;20179;-71
2022/10/21 08:19:36;;;;;;;14.73;9.80;;;;;;;14.79;100.00;99608.13;10382971;28;20487;-70
2022/10/21 08:24:37;;;;;;;13.23;9.20;;;;;;;14.88;100.00;99608.94;10386787;28;20401;-70
2022/10/21 08:29:42;;;;;;;11.13;8.57;;;;;;;15.04;100.00;99611.63;10421682;28;20045;-70
2022/10/21 08:34:43;;;;;;;11.70;8.88;;;;;;;15.07;100.00;99600.56;10422577;28;20621;-70
2022/10/21 08:39:45;;;;;;;13.02;9.32;;;;;;;15.12;100.00;99600.09;10421228;28;20507;-69
2022/10/21 08:44:54;;;;;;;10.57;8.38;;;;;;;15.18;100.00;99589.50;10420587;28;20044;-70
2022/10/21 08:49:59;;;;;;;10.77;7.63;;;;;;;15.27;100.00;99594.88;10417076;28;20045;-71
2022/10/21 08:55:03;;;;;;;9.27;8.27;;;;;;;15.33;100.00;99599.56;10418600;28;20448;-71
2022/10/21 09:00:21;;;;;;;10.68;7.80;;;;;;;15.25;100.00;99596.88;10417013;28;20594;-73
2022/10/21 09:05:44;;;;;;;11.55;8.82;;;;;;;15.22;100.00;99600.72;10390394;28;20266;-71
2022/10/21 09:10:55;;;;;;;11.02;7.85;;;;;;;15.23;100.00;99596.22;10413605;28;20049;-70
2022/10/21 09:16:20;;;;;;;11.20;8.20;;;;;;;15.32;100.00;99585.28;10414845;28;20060;-69
2022/10/21 09:22:05;;;;;;;11.43;8.07;;;;;;;15.43;100.00;99602.84;10410446;28;20044;-70
2022/10/21 09:27:27;;;;;;;9.40;7.35;;;;;;;15.50;100.00;99606.53;10360772;28;20160;-70
2022/10/21 09:32:41;;;;;;;9.57;7.97;;;;;;;15.50;100.00;99603.84;10371731;28;20098;-71
2022/10/21 09:38:01;;;;;;;10.82;7.85;;;;;;;15.43;100.00;99616.28;10386964;28;20041;-70
2022/10/21 09:43:04;;;;;;;8.88;7.90;;;;;;;15.42;100.00;99603.88;10413966;28;20045;-72
2022/10/21 09:48:17;;;;;;;12.05;8.25;;;;;;;15.42;100.00;99609.25;10414864;28;20075;-69
2022/10/21 09:53:23;;;;;;;8.27;6.85;;;;;;;15.41;100.00;99622.84;10397203;28;20049;-70
2022/10/21 09:58:42;;;;;;;9.10;7.95;;;;;;;15.40;100.00;99611.25;10392925;28;20174;-72
2022/10/21 10:03:46;;;;;;;10.55;7.70;;;;;;;15.44;100.00;99612.59;10411900;28;20078;-70
2022/10/21 10:08:47;;;;;;;8.52;7.22;;;;;;;15.48;100.00;99613.94;10372811;28;20502;-70
2022/10/21 10:13:52;;;;;;;8.65;7.47;;;;;;;15.54;100.00;99617.78;10377579;28;20061;-70
2022/10/21 10:19:22;;;;;;;9.32;7.63;;;;;;;15.56;100.00;99621.94;10380464;28;20426;-70
2022/10/21 10:24:23;;;;;;;7.85;6.78;;;;;;;15.69;100.00;99618.75;10384030;28;20578;-71
2022/10/21 10:29:27;;;;;;;6.22;5.60;;;;;;;15.72;100.00;99628.28;10376739;28;20052;-71
2022/10/21 10:34:38;;;;;;;6.57;5.50;;;;;;;15.72;100.00;99631.81;10379553;28;20068;-70
2022/10/21 10:39:44;;;;;;;6.85;5.80;;;;;;;15.62;100.00;99636.53;10377536;28;20053;-70
2022/10/21 10:44:49;;;;;;;4.72;4.00;;;;;;;15.63;100.00;99634.69;10385467;28;20198;-70
2022/10/21 10:49:51;;;;;;;3.97;3.50;;;;;;;15.62;100.00;99631.16;10385557;28;20428;-72
2022/10/21 10:55:15;;;;;;;3.83;3.50;;;;;;;15.69;100.00;99625.97;10376557;28;20057;-71
2022/10/21 11:00:21;;;;;;;4.67;3.60;;;;;;;15.80;100.00;99628.28;10378047;28;20454;-71
2022/10/21 11:05:35;;;;;;;4.00;3.22;;;;;;;15.85;100.00;99620.56;10383841;28;20053;-71
2022/10/21 11:10:37;;;;;;;;;;;;;;;15.86;100.00;99595.38;10382804;28;20049;-71
2022/10/21 11:15:54;;;;;;;4.68;4.07;;;;;;;15.80;100.00;99580.00;10382756;28;19928;-70
2022/10/21 11:21:06;;;;;;;4.13;2.75;;;;;;;15.85;100.00;99572.28;10379675;28;20455;-71
2022/10/21 11:26:39;;;;;;;3.00;2.75;;;;;;;15.86;100.00;99559.69;10380912;28;20746;-70
2022/10/21 11:32:07;;;;;;;4.75;2.90;;;;;;;15.94;100.00;99599.06;10397638;28;20052;-72
2022/10/21 11:37:57;;;;;;;3.47;2.88;;;;;;;15.97;100.00;99601.38;10397190;28;20041;-71
2022/10/21 11:43:28;;;;;;;7.25;3.15;;;;;;;16.06;100.00;99608.38;10313550;28;20832;-70
2022/10/21 11:48:35;;;;;;;5.35;3.35;;;;;;;16.17;100.00;99623.25;10391030;28;20102;-70
2022/10/21 11:53:50;;;;;;;5.10;3.05;;;;;;;16.24;100.00;99638.53;10419380;28;20059;-70
2022/10/21 11:59:22;;;;;;;3.65;2.80;;;;;;;16.34;100.00;99646.34;10403443;28;20052;-70
2022/10/21 12:04:33;;;;;;;6.30;4.30;;;;;;;16.29;100.00;99647.88;10405685;28;20036;-70
2022/10/21 12:10:03;;;;;;;6.60;3.85;;;;;;;16.27;100.00;99645.38;10419801;28;20072;-70
2022/10/21 12:15:24;;;;;;;9.10;7.00;;;;;;;16.50;100.00;99640.06;10420900;28;20495;-70
2022/10/21 12:20:26;;;;;;;3.72;3.13;;;;;;;17.09;100.00;99636.81;10398117;28;20040;-70
2022/10/21 12:25:36;;;;;;;5.00;3.17;;;;;;;23.01;71.62;99625.00;10376772;28;20055;-69
2022/10/21 12:30:49;;;;;;;2.67;2.42;;;;;;;21.74;74.05;99641.84;10372997;28;20052;-69
2022/10/21 12:35:54;;;;;;;3.17;2.28;;;;;;;21.92;75.83;99635.75;10377820;28;20045;-70
2022/10/21 12:41:23;;;;;;;9.23;8.35;;;;;;;19.73;83.45;99635.97;10384360;28;20049;-68
2022/10/21 12:46:47;;;;;;;3.55;3.13;;;;;;;18.62;92.68;99628.38;10384196;28;20269;-70
2022/10/21 12:51:51;;;;;;;;;;;;;;;18.10;97.10;99641.00;10376927;28;20073;-69
2022/10/21 12:57:04;;;;;;;;;;;;;;;17.93;99.72;99649.28;10379279;28;19951;-68
2022/10/21 13:02:09;;;;;;;4.47;2.50;;;;;;;21.62;75.94;99641.66;10416551;28;20013;-68
2022/10/21 13:07:11;;;;;;;1.90;1.50;;;;;;;19.50;86.39;99636.19;10415465;28;20052;-69
2022/10/21 13:12:15;;;;;;;1.87;1.20;;;;;;;19.77;86.93;99627.28;10416316;28;20052;-69
2022/10/21 13:17:20;;;;;;;3.25;0.73;;;;;;;21.10;78.24;99633.34;10401616;28;20055;-70
2022/10/21 13:22:48;;;;;;;1.17;0.80;;;;;;;19.17;86.81;99634.09;10374730;28;20060;-69
2022/10/21 13:28:02;;;;;;;1.75;1.00;;;;;;;18.38;93.90;99628.50;10370386;28;20053;-68
2022/10/21 13:33:13;;;;;;;1.25;0.90;;;;;;;18.26;96.05;99623.81;10372208;28;20582;-69
2022/10/21 13:38:22;;;;;;;1.45;1.00;;;;;;;19.76;86.13;99620.19;10370518;28;20117;-69
2022/10/21 13:43:28;;;;;;;2.42;1.08;;;;;;;20.62;79.19;99629.69;10387781;28;20068;-68
2022/10/21 13:48:29;;;;;;;5.93;5.32;;;;;;;19.35;86.37;99639.00;10402484;28;20056;-69
2022/10/21 13:53:36;;;;;;;6.22;4.50;;;;;;;18.73;91.81;99625.16;10421552;28;20053;-69
2022/10/21 13:58:38;;;;;;;3.08;2.47;;;;;;;18.56;94.40;99621.88;10415393;28;20055;-68
2022/10/21 14:03:40;;;;;;;3.50;2.38;;;;;;;18.35;97.11;99628.06;10423808;28;20060;-69
2022/10/21 14:08:45;;;;;;;1.95;1.30;;;;;;;18.19;98.44;99619.19;10408481;28;20068;-70
2022/10/21 14:13:49;;;;;;;9.75;7.65;;;;;;;17.97;100.00;99636.28;10408349;28;20743;-69
2022/10/21 14:18:52;;;;;;;17.33;16.08;;;;;;;17.83;100.00;99636.09;10424945;28;20091;-68
2022/10/21 14:23:53;;;;;;;3.03;2.60;;;;;;;17.81;100.00;99638.13;10406246;28;20052;-71
2022/10/21 14:28:57;;;;;;;3.72;1.85;;;;;;;17.73;100.00;99635.53;10421163;28;20056;-69
2022/10/21 14:33:58;;;;;;;4.30;2.88;;;;;;;17.64;100.00;99618.63;10417366;28;20166;-69
2022/10/21 14:39:05;;;;;;;3.40;2.17;;;;;;;17.58;100.00;99618.53;10424576;28;20060;-69
2022/10/21 14:44:14;;;;;;;3.45;3.15;;;;;;;17.37;100.00;99613.84;10404394;28;20053;-69
2022/10/21 14:49:21;;;;;;;3.20;2.88;;;;;;;17.26;100.00;99609.78;10396828;28;20045;-69
2022/10/21 14:54:28;;;;;;;29.08;24.70;;;;;;;17.26;100.00;99617.84;10390048;28;20327;-70
2022/10/21 14:59:38;;;;;;;3.63;3.10;;;;;;;17.24;100.00;99620.72;10379629;28;20053;-69
2022/10/21 15:04:42;;;;;;;2.75;1.98;;;;;;;17.23;100.00;99624.41;10383335;28;20056;-70
2022/10/21 15:10:02;;;;;;;4.45;2.38;;;;;;;17.24;100.00;99614.50;10376571;28;20524;-70
2022/10/21 15:15:04;;;;;;;11.07;6.65;;;;;;;17.26;100.00;99604.38;10376046;28;20048;-70
2022/10/21 15:20:15;;;;;;;5.53;2.60;;;;;;;17.24;100.00;99601.88;10379370;28;20056;-70
2022/10/21 15:25:18;;;;;;;5.50;2.42;;;;;;;17.10;100.00;99602.72;10382683;28;20131;-69
2022/10/21 15:30:20;;;;;;;3.10;2.20;;;;;;;17.16;100.00;99612.72;10381201;28;20400;-70
2022/10/21 15:35:22;;;;;;;3.45;1.55;;;;;;;17.17;100.00;99617.06;10376493;28;20507;-70
2022/10/21 15:40:24;;;;;;;2.78;2.10;;;;;;;17.09;100.00;99607.22;10382215;28;20123;-70
2022/10/21 15:45:25;;;;;;;3.47;1.50;;;;;;;17.08;100.00;99605.56;10381133;28;20044;-69
2022/10/21 15:50:26;;;;;;;4.57;2.05;;;;;;;17.05;100.00;99605.91;10384760;28;20052;-70
2022/10/21 15:55:28;;;;;;;3.25;1.95;;;;;;;16.93;100.00;99610.91;10375941;28;20045;-70
2022/10/21 16:00:30;;;;;;;5.00;2.28;;;;;;;16.94;100.00;99614.44;10378141;28;20572;-70
2022/10/21 16:05:32;;;;;;;4.07;2.10;;;;;;;16.91;100.00;99594.09;10380254;28;20053;-70
2022/10/21 16:10:35;;;;;;;5.43;1.80;;;;;;;16.86;100.00;99606.38;10380018;28;20231;-70
2022/10/21 16:15:36;;;;;;;2.90;2.13;;;;;;;16.77;100.00;99597.56;10379523;28;20052;-70
2022/10/21 16:20:38;;;;;;;3.85;2.17;;;;;;;16.84;100.00;99606.56;10384678;28;20064;-70
2022/10/21 16:25:39;;;;;;;2.75;1.75;;;;;;;16.81;100.00;99604.22;10379963;28;20049;-69
2022/10/21 16:30:41;;;;;;;2.28;1.88;;;;;;;16.81;100.00;99609.59;10371919;28;20068;-70
2022/10/21 16:35:47;;;;;;;5.38;2.33;;;;;;;16.83;100.00;99615.66;10375403;28;20056;-69
2022/10/21 16:40:48;;;;;;;2.67;2.00;;;;;;;16.72;100.00;99613.38;10371467;28;20046;-69
2022/10/21 16:45:50;;;;;;;7.88;2.50;;;;;;;16.75;100.00;99621.09;10378445;28;20048;-70
2022/10/21 16:50:51;;;;;;;3.75;2.53;;;;;;;16.74;100.00;99614.06;10378993;28;20057;-71
2022/10/21 16:55:52;;;;;;;6.57;3.17;;;;;;;16.69;100.00;99605.69;10377820;28;20330;-70
2022/10/21 17:00:55;;;;;;;5.65;3.53;;;;;;;16.73;100.00;99612.38;10377920;28;20485;-71
2022/10/21 17:05:56;;;;;;;9.07;4.03;;;;;;;16.72;100.00;99624.13;10376027;28;20053;-70
2022/10/21 17:10:58;;;;;;;6.90;3.97;;;;;;;16.64;100.00;99624.19;10379037;28;20057;-71
2022/10/21 17:15:59;;;;;;;7.43;3.35;;;;;;;16.59;100.00;99639.00;10374649;28;20049;-71
2022/10/21 17:21:01;;;;;;;6.68;3.58;;;;;;;16.54;100.00;99637.84;10374847;28;20399;-72
2022/10/21 17:26:02;;;;;;;6.20;3.53;;;;;;;16.55;100.00;99643.03;10375507;28;20535;-71
2022/10/21 17:31:03;;;;;;;6.22;3.78;;;;;;;16.51;100.00;99647.09;10400862;28;20063;-71
2022/10/21 17:36:05;;;;;;;7.40;3.58;;;;;;;16.51;100.00;99648.94;10408863;28;20049;-71
2022/10/21 17:41:11;;;;;;;4.10;3.13;;;;;;;16.52;100.00;99656.81;10367424;28;20049;-69
2022/10/21 17:46:19;;;;;;;4.68;3.70;;;;;;;16.54;100.00;99646.75;10368690;28;20057;-69
2022/10/21 17:51:21;;;;;;;5.30;3.55;;;;;;;16.56;100.00;99654.66;10373111;28;20617;-70
2022/10/21 17:56:23;;;;;;;8.75;5.60;;;;;;;16.55;100.00;99664.53;10383961;28;20793;-71
2022/10/21 18:01:24;;;;;;;7.55;4.05;;;;;;;16.57;100.00;99667.91;10373549;28;20064;-70
2022/10/21 18:06:26;;;;;;;5.65;3.75;;;;;;;16.57;100.00;99662.53;10374790;28;20431;-71
2022/10/21 18:11:27;;;;;;;5.57;3.85;;;;;;;16.51;100.00;99657.00;10367207;28;20056;-70
2022/10/21 18:16:29;;;;;;;5.55;3.75;;;;;;;16.49;100.00;99667.09;10371056;28;20471;-79
2022/10/21 18:21:30;;;;;;;5.15;3.28;;;;;;;16.44;100.00;99678.38;10371872;28;20060;-70
2022/10/21 18:26:32;;;;;;;6.38;4.10;;;;;;;16.48;100.00;99674.31;10368747;28;20844;-70
2022/10/21 18:31:35;;;;;;;5.15;3.58;;;;;;;16.44;100.00;99663.09;10381104;28;20095;-70
2022/10/21 18:36:36;;;;;;;7.57;3.63;;;;;;;16.41;100.00;99659.94;10399314;28;20052;-69
2022/10/21 18:41:38;;;;;;;5.53;2.78;;;;;;;16.38;100.00;99668.34;10386929;28;20420;-72
2022/10/21 18:46:41;;;;;;;5.18;3.40;;;;;;;16.31;100.00;99640.50;10391584;28;20054;-71
2022/10/21 18:51:42;;;;;;;7.45;3.70;;;;;;;16.25;100.00;99631.28;10388013;28;20053;-71
2022/10/21 18:56:44;;;;;;;5.03;3.67;;;;;;;16.22;100.00;99623.59;10376737;28;20056;-70
2022/10/21 19:01:45;;;;;;;4.85;3.47;;;;;;;16.15;100.00;99638.72;10379721;28;20057;-72
2022/10/21 19:06:47;;;;;;;5.90;4.00;;;;;;;16.16;100.00;99635.88;10381683;28;20109;-71
2022/10/21 19:11:48;;;;;;;6.07;3.70;;;;;;;16.10;100.00;99643.78;10379841;28;20542;-70
2022/10/21 19:16:50;;;;;;;4.82;3.55;;;;;;;16.03;100.00;99628.38;10389774;28;20055;-74
2022/10/21 19:21:51;;;;;;;6.13;3.22;;;;;;;16.02;100.00;99625.88;10384930;28;20057;-73
2022/10/21 19:26:56;;;;;;;4.57;3.30;;;;;;;15.99;100.00;99645.84;10383486;28;20060;-72
2022/10/21 19:31:57;;;;;;;4.88;3.00;;;;;;;15.98;100.00;99656.75;10381015;28;20416;-72
2022/10/21 19:36:58;;;;;;;6.03;3.33;;;;;;;15.94;100.00;99668.84;10380480;28;20064;-71
2022/10/21 19:42:00;;;;;;;8.07;3.28;;;;;;;15.94;100.00;99693.00;10381646;28;20807;-70
2022/10/21 19:47:01;;;;;;;5.65;3.67;;;;;;;15.93;100.00;99696.69;10387336;28;20111;-71
2022/10/21 19:52:02;;;;;;;6.80;4.15;;;;;;;15.85;100.00;99701.09;10390509;28;20049;-70
2022/10/21 19:57:04;;;;;;;7.63;2.95;;;;;;;15.89;100.00;99678.25;10396346;28;20049;-69
2022/10/21 20:02:05;;;;;;;4.53;3.25;;;;;;;15.94;100.00;99693.00;10384202;28;20515;-72
2022/10/21 20:07:06;;;;;;;4.55;3.00;;;;;;;15.85;100.00;99689.50;10379506;28;20111;-71
2022/10/21 20:12:08;;;;;;;4.40;2.80;;;;;;;15.86;100.00;99675.91;10380181;28;20057;-71
2022/10/21 20:17:09;;;;;;;4.82;2.78;;;;;;;15.90;100.00;99693.34;10379805;28;20056;-69
2022/10/21 20:22:14;;;;;;;4.60;2.50;;;;;;;15.96;100.00;99694.50;10377971;28;20045;-69
2022/10/21 20:27:15;;;;;;;4.70;3.17;;;;;;;15.99;100.00;99701.34;10378751;28;20064;-69
2022/10/21 20:32:17;;;;;;;3.83;2.50;;;;;;;16.01;100.00;99702.03;10378247;28;20069;-70
2022/10/21 20:37:18;;;;;;;4.25;1.90;;;;;;;16.00;100.00;99686.94;10381922;28;20052;-71
2022/10/21 20:42:19;;;;;;;7.18;2.65;;;;;;;16.10;100.00;99689.44;10377528;28;20057;-72
2022/10/21 20:47:20;;;;;;;4.82;2.20;;;;;;;16.11;100.00;99689.25;10379820;28;20140;-69
2022/10/21 20:52:22;;;;;;;3.63;3.13;;;;;;;16.13;100.00;99703.34;10376554;28;20053;-68
2022/10/21 20:57:23;;;;;;;6.95;3.67;;;;;;;16.02;100.00;99695.66;10383055;28;20060;-70
2022/10/21 21:02:24;;;;;;;5.78;3.15;;;;;;;16.04;100.00;99723.16;10389300;28;20474;-69
2022/10/21 21:07:26;;;;;;;7.57;3.38;;;;;;;16.00;100.00;99714.63;10388439;28;20064;-70
2022/10/21 21:12:27;;;;;;;6.07;2.95;;;;;;;16.02;100.00;99719.84;10390310;28;20049;-70
2022/10/21 21:17:29;;;;;;;3.67;2.85;;;;;;;16.07;100.00;99709.41;10387559;28;20053;-69
2022/10/21 21:22:30;;;;;;;4.25;2.65;;;;;;;16.08;100.00;99706.53;10391402;28;20471;-70
2022/10/21 21:27:31;;;;;;;4.50;3.10;;;;;;;16.09;100.00;99702.00;10399063;28;20560;-69
2022/10/21 21:32:32;;;;;;;3.60;2.53;;;;;;;15.96;100.00;99664.13;10397361;28;20052;-70
2022/10/21 21:37:34;;;;;;;5.72;2.40;;;;;;;16.02;100.00;99658.09;10387763;28;20048;-69
2022/10/21 21:42:35;;;;;;;5.80;2.58;;;;;;;16.04;100.00;99669.47;10385468;28;20049;-70
2022/10/21 21:47:36;;;;;;;5.63;3.30;;;;;;;16.08;100.00;99701.16;10384715;28;20054;-71
2022/10/21 21:52:38;;;;;;;6.80;4.13;;;;;;;16.07;100.00;99679.88;10385802;28;20049;-70
2022/10/21 21:57:39;;;;;;;5.82;3.78;;;;;;;16.03;100.00;99684.75;10388635;28;20041;-69
2022/10/21 22:02:40;;;;;;;5.10;4.45;;;;;;;15.97;100.00;99704.22;10401630;28;20562;-71
2022/10/21 22:07:42;;;;;;;5.65;4.82;;;;;;;15.86;100.00;99694.69;10394725;28;20130;-69
2022/10/21 22:12:43;;;;;;;8.35;5.75;;;;;;;15.79;100.00;99714.31;10400367;28;20053;-69
2022/10/21 22:17:47;;;;;;;8.23;4.65;;;;;;;15.77;100.00;99714.47;10399767;28;20508;-69
2022/10/21 22:22:48;;;;;;;6.75;4.63;;;;;;;15.78;100.00;99689.34;10403103;28;20048;-68
2022/10/21 22:27:50;;;;;;;7.05;4.15;;;;;;;15.84;100.00;99698.56;10416389;28;20458;-68
2022/10/21 22:32:51;;;;;;;7.53;5.13;;;;;;;15.83;100.00;99692.34;10402772;28;20107;-69
2022/10/21 22:37:52;;;;;;;7.97;5.57;;;;;;;15.76;100.00;99675.22;10395729;28;20415;-69
2022/10/21 22:42:53;;;;;;;7.20;5.82;;;;;;;15.77;100.00;99693.00;10399807;28;20053;-69
2022/10/21 22:47:55;;;;;;;6.68;5.28;;;;;;;15.85;100.00;99690.34;10397549;28;20192;-68
2022/10/21 22:52:56;;;;;;;8.00;5.00;;;;;;;15.86;100.00;99678.59;10395257;28;20072;-70
2022/10/21 22:57:57;;;;;;;11.70;5.88;;;;;;;15.88;100.00;99673.91;10392493;28;20045;-70
2022/10/21 23:02:58;;;;;;;6.30;4.85;;;;;;;15.86;100.00;99670.53;10397738;28;20085;-69
2022/10/21 23:08:00;;;;;;;7.97;4.85;;;;;;;15.83;100.00;99665.50;10400313;28;20060;-70
2022/10/21 23:13:01;;;;;;;7.00;5.78;;;;;;;15.72;100.00;99674.72;10394887;28;20092;-70